Time;durP1;ratioP1;P1;durP2;ratioP2;P2;SDS_P1;SDS_P2;PMS_P1;PMS_P2;Temp;Humidity;BMP_temperature;BMP_pressure;BME280_temperature;BME280_humidity;BME280_pressure;Samples;Min_cycle;Max_cycle;Signal;HPM_P1;HPM_P2
2023/09/15 00:01:34;;;;;;;11.32;7.72;;;16.20;99.90;;;;;;4962889;28;20022;-75
2023/09/15 00:04:04;;;;;;;12.32;7.47;;;16.20;99.90;;;;;;4956360;28;20225;-75
2023/09/15 00:06:30;;;;;;;12.30;7.43;;;16.10;99.90;;;;;;4959345;28;20019;-75
2023/09/15 00:08:57;;;;;;;12.05;7.88;;;16.10;99.90;;;;;;4964082;28;20027;-75
2023/09/15 00:11:23;;;;;;;10.77;7.85;;;16.10;99.90;;;;;;4954125;28;20082;-75
2023/09/15 00:13:49;;;;;;;9.48;6.22;;;16.00;99.90;;;;;;4961631;28;20027;-75
2023/09/15 00:16:16;;;;;;;10.52;7.55;;;16.00;99.90;;;;;;4956275;28;20026;-75
2023/09/15 00:18:42;;;;;;;12.15;6.97;;;16.00;99.90;;;;;;4960282;28;20030;-75
2023/09/15 00:21:09;;;;;;;11.15;7.18;;;15.90;99.90;;;;;;4964211;28;20030;-75
2023/09/15 00:23:38;;;;;;;9.45;7.15;;;15.90;99.90;;;;;;4957670;28;20026;-75
2023/09/15 00:26:04;;;;;;;12.60;7.28;;;15.90;99.90;;;;;;4955856;28;20102;-75
2023/09/15 00:28:30;;;;;;;11.82;7.15;;;15.90;99.90;;;;;;4963279;28;20110;-75
2023/09/15 00:30:59;;;;;;;10.30;6.60;;;15.90;99.90;;;;;;4962334;28;20027;-74
2023/09/15 00:33:25;;;;;;;13.07;6.95;;;15.80;99.90;;;;;;4955830;28;20076;-75
2023/09/15 00:35:51;;;;;;;10.73;6.80;;;15.80;99.90;;;;;;4958769;28;20501;-75
2023/09/15 00:38:17;;;;;;;10.20;6.55;;;15.80;99.90;;;;;;4963499;28;20028;-75
2023/09/15 00:40:42;;;;;;;11.30;6.75;;;15.80;99.90;;;;;;4958206;28;20070;-75
2023/09/15 00:43:08;;;;;;;12.38;6.82;;;15.80;99.90;;;;;;4954394;28;20031;-75
2023/09/15 00:45:34;;;;;;;10.55;6.60;;;15.80;99.90;;;;;;4962221;28;20031;-75
2023/09/15 00:47:59;;;;;;;11.32;6.68;;;15.80;99.90;;;;;;4960907;28;20077;-75
2023/09/15 00:50:31;;;;;;;10.80;6.88;;;15.80;99.90;;;;;;4955039;28;20027;-75
2023/09/15 00:53:09;;;;;;;12.07;7.03;;;15.80;99.90;;;;;;4940466;28;20358;-75
2023/09/15 00:55:36;;;;;;;10.35;6.88;;;15.70;99.90;;;;;;4954269;28;20054;-75
2023/09/15 00:58:03;;;;;;;12.13;7.05;;;15.70;99.90;;;;;;4957984;28;20031;-75
2023/09/15 01:00:32;;;;;;;10.68;6.45;;;15.70;99.90;;;;;;4963079;28;20027;-75
2023/09/15 01:02:59;;;;;;;12.07;6.78;;;15.60;99.90;;;;;;4959165;28;20509;-75
2023/09/15 01:05:25;;;;;;;13.68;7.18;;;15.60;99.90;;;;;;4964540;28;20041;-75
2023/09/15 01:07:52;;;;;;;11.38;6.85;;;15.60;99.90;;;;;;4940168;28;20010;-75
2023/09/15 01:10:19;;;;;;;10.35;6.75;;;15.50;99.90;;;;;;4954679;28;20365;-76
2023/09/15 01:12:46;;;;;;;11.00;6.75;;;15.50;99.90;;;;;;4955250;28;20105;-75
2023/09/15 01:15:12;;;;;;;11.70;6.43;;;15.50;99.90;;;;;;4959892;28;20031;-75
2023/09/15 01:18:16;;;;;;;11.52;6.65;;;15.40;99.90;;;;;;4962752;28;20413;-75
2023/09/15 01:21:06;;;;;;;11.15;6.68;;;15.40;99.90;;;;;;4960611;28;20043;-75
2023/09/15 01:23:58;;;;;;;11.70;6.50;;;15.40;99.90;;;;;;4944088;28;20030;-75
2023/09/15 01:26:42;;;;;;;9.80;6.53;;;15.40;99.90;;;;;;4955176;28;20023;-75
2023/09/15 01:29:28;;;;;;;8.70;6.50;;;15.30;99.90;;;;;;4957058;28;20020;-75
2023/09/15 01:31:56;;;;;;;12.05;6.43;;;15.30;99.90;;;;;;4942171;28;20434;-75
2023/09/15 01:34:21;;;;;;;12.35;6.95;;;15.30;99.90;;;;;;4955950;28;20118;-75
2023/09/15 01:36:47;;;;;;;9.68;5.80;;;15.20;99.90;;;;;;4962659;28;20444;-75
2023/09/15 01:39:12;;;;;;;8.52;6.22;;;15.20;99.90;;;;;;4958826;28;20596;-75
2023/09/15 01:41:38;;;;;;;8.93;6.82;;;15.20;99.90;;;;;;4954661;28;20644;-75
2023/09/15 01:44:04;;;;;;;10.18;6.70;;;15.20;99.90;;;;;;4947364;29;20371;-74
2023/09/15 01:46:29;;;;;;;11.63;6.40;;;15.20;99.90;;;;;;4962537;28;20393;-75
2023/09/15 01:48:57;;;;;;;8.95;5.50;;;15.20;99.90;;;;;;4954806;28;20034;-75
2023/09/15 01:51:24;;;;;;;11.27;6.80;;;15.10;99.90;;;;;;4956021;28;20020;-75
2023/09/15 01:53:52;;;;;;;10.43;5.88;;;15.10;99.90;;;;;;4953118;28;20088;-75
2023/09/15 01:56:20;;;;;;;11.55;6.93;;;15.10;99.90;;;;;;4957270;28;20493;-75
2023/09/15 01:58:46;;;;;;;9.88;6.20;;;15.10;99.90;;;;;;4962088;28;20430;-75
2023/09/15 02:01:12;;;;;;;9.35;5.80;;;15.10;99.90;;;;;;4957953;28;20054;-75
2023/09/15 02:03:38;;;;;;;10.35;6.00;;;15.10;99.90;;;;;;4948117;28;20039;-75
2023/09/15 02:06:04;;;;;;;11.60;6.97;;;15.00;99.90;;;;;;4961093;28;20019;-75
2023/09/15 02:08:33;;;;;;;10.35;6.68;;;15.00;99.90;;;;;;4931363;29;20075;-75
2023/09/15 02:10:59;;;;;;;9.65;6.25;;;15.00;99.90;;;;;;4943427;28;20393;-75
2023/09/15 02:13:25;;;;;;;9.38;6.22;;;15.00;99.90;;;;;;4962825;28;20047;-75
2023/09/15 02:15:54;;;;;;;10.43;6.35;;;14.90;99.90;;;;;;4960447;28;20069;-76
2023/09/15 02:18:20;;;;;;;9.32;5.97;;;14.90;99.90;;;;;;4968192;28;20027;-76
2023/09/15 02:20:55;;;;;;;9.38;6.28;;;14.90;99.90;;;;;;4949767;28;20113;-75
2023/09/15 02:23:25;;;;;;;15.75;6.38;;;14.90;99.90;;;;;;4947119;28;20166;-75
2023/09/15 02:25:51;;;;;;;10.52;6.28;;;14.90;99.90;;;;;;4961942;28;20066;-75
2023/09/15 02:28:20;;;;;;;9.57;6.15;;;14.90;99.90;;;;;;4968604;28;20034;-76
2023/09/15 02:30:46;;;;;;;11.13;6.40;;;14.80;99.90;;;;;;4965457;28;20370;-75
2023/09/15 02:33:12;;;;;;;8.85;5.70;;;14.80;99.90;;;;;;4960718;28;20019;-75
2023/09/15 02:35:38;;;;;;;10.60;6.15;;;14.80;99.90;;;;;;4964939;28;20382;-75
2023/09/15 02:38:04;;;;;;;10.93;6.22;;;14.80;99.90;;;;;;4968363;28;20023;-76
2023/09/15 02:40:30;;;;;;;9.18;5.72;;;14.80;99.90;;;;;;4961138;28;20053;-75
2023/09/15 02:42:56;;;;;;;8.00;5.72;;;14.80;99.90;;;;;;4961483;28;20031;-75
2023/09/15 02:45:22;;;;;;;11.30;6.20;;;14.80;99.90;;;;;;4968006;28;20034;-75
2023/09/15 02:47:47;;;;;;;9.77;5.95;;;14.70;99.90;;;;;;4965678;28;20049;-75
2023/09/15 02:50:13;;;;;;;8.27;5.32;;;14.70;99.90;;;;;;4960317;28;20385;-75
2023/09/15 02:52:39;;;;;;;11.38;6.20;;;14.70;99.90;;;;;;4965264;28;20413;-75
2023/09/15 02:55:05;;;;;;;10.40;5.93;;;14.70;99.90;;;;;;4968050;28;20022;-75
2023/09/15 02:57:31;;;;;;;8.88;6.13;;;14.70;99.90;;;;;;4944176;28;20019;-75
2023/09/15 02:59:57;;;;;;;8.00;4.88;;;14.70;99.90;;;;;;4943755;28;20042;-76
2023/09/15 03:02:22;;;;;;;10.27;6.22;;;14.60;99.90;;;;;;4968338;28;20026;-75
2023/09/15 03:04:48;;;;;;;10.73;6.35;;;14.60;99.90;;;;;;4947622;28;20461;-75
2023/09/15 03:07:15;;;;;;;12.48;6.47;;;14.60;99.90;;;;;;4960190;28;20018;-75
2023/09/15 03:09:41;;;;;;;12.18;6.25;;;14.60;99.90;;;;;;4964672;28;20018;-76
2023/09/15 03:12:07;;;;;;;9.10;5.95;;;14.60;99.90;;;;;;4958378;28;20501;-75
2023/09/15 03:14:33;;;;;;;9.18;5.65;;;14.60;99.90;;;;;;4967634;28;20075;-74
2023/09/15 03:16:59;;;;;;;12.48;6.15;;;14.60;99.90;;;;;;4963659;28;20070;-75
2023/09/15 03:19:25;;;;;;;8.35;5.57;;;14.50;99.90;;;;;;4959728;28;20117;-75
2023/09/15 03:21:51;;;;;;;9.10;4.93;;;14.50;99.90;;;;;;4963629;28;20030;-75
2023/09/15 03:24:17;;;;;;;10.50;5.82;;;14.50;99.90;;;;;;4963998;28;20031;-75
2023/09/15 03:26:43;;;;;;;9.63;6.05;;;14.40;99.90;;;;;;4957129;28;20039;-75
2023/09/15 03:29:09;;;;;;;10.77;5.85;;;14.50;99.90;;;;;;4959499;28;20050;-75
2023/09/15 03:31:34;;;;;;;10.45;5.53;;;14.50;99.90;;;;;;4964763;28;20065;-75
2023/09/15 03:34:00;;;;;;;13.55;6.80;;;14.50;99.90;;;;;;4960643;28;20169;-75
2023/09/15 03:36:26;;;;;;;8.65;5.90;;;14.40;99.90;;;;;;4956742;28;20482;-75
2023/09/15 03:38:52;;;;;;;13.00;5.65;;;14.50;99.90;;;;;;4962946;28;20097;-75
2023/09/15 03:41:17;;;;;;;9.10;5.97;;;14.40;99.90;;;;;;4963941;28;20042;-75
2023/09/15 03:43:43;;;;;;;10.30;6.22;;;14.40;99.90;;;;;;4956957;28;20039;-75
2023/09/15 03:46:09;;;;;;;9.25;5.90;;;14.40;99.90;;;;;;4957555;28;20113;-75
2023/09/15 03:48:34;;;;;;;9.02;5.80;;;14.40;99.90;;;;;;4950624;29;20049;-76
2023/09/15 03:51:00;;;;;;;11.30;5.80;;;14.40;99.90;;;;;;4942484;28;20049;-75
2023/09/15 03:53:26;;;;;;;9.35;5.68;;;14.40;99.90;;;;;;4956742;28;20140;-75
2023/09/15 03:55:52;;;;;;;7.93;4.70;;;14.30;99.90;;;;;;4962449;28;20063;-75
2023/09/15 03:58:18;;;;;;;9.77;5.93;;;14.30;99.90;;;;;;4946559;28;20069;-75
2023/09/15 04:00:44;;;;;;;13.32;5.82;;;14.30;99.90;;;;;;4956122;28;20030;-75
2023/09/15 04:03:09;;;;;;;9.77;5.60;;;14.30;99.90;;;;;;4959169;28;20375;-75
2023/09/15 04:05:35;;;;;;;9.82;6.15;;;14.30;99.90;;;;;;4963773;28;20027;-75
2023/09/15 04:08:01;;;;;;;7.90;5.40;;;14.30;99.90;;;;;;4959968;28;20023;-75
2023/09/15 04:10:27;;;;;;;10.27;5.57;;;14.30;99.90;;;;;;4955833;28;20058;-75
2023/09/15 04:12:52;;;;;;;9.02;5.43;;;14.30;99.90;;;;;;4956273;28;20114;-75
2023/09/15 04:15:18;;;;;;;10.90;5.68;;;14.20;99.90;;;;;;4948755;29;20042;-75
2023/09/15 04:17:44;;;;;;;9.73;5.50;;;14.20;99.90;;;;;;4964018;28;20023;-75
2023/09/15 04:20:10;;;;;;;9.60;5.63;;;14.20;99.90;;;;;;4950284;28;20067;-75
2023/09/15 04:22:38;;;;;;;10.68;5.50;;;14.20;99.90;;;;;;4963749;28;20045;-75
2023/09/15 04:25:05;;;;;;;9.27;5.28;;;14.20;99.90;;;;;;4942196;28;20493;-75
2023/09/15 04:27:32;;;;;;;11.63;5.47;;;14.20;99.90;;;;;;4949066;29;20019;-75
2023/09/15 04:29:58;;;;;;;9.13;5.90;;;14.20;99.90;;;;;;4963588;28;20085;-75
2023/09/15 04:32:23;;;;;;;10.98;5.53;;;14.20;99.90;;;;;;4959993;28;20018;-75
2023/09/15 04:34:50;;;;;;;9.38;5.30;;;14.20;99.90;;;;;;4955474;28;20031;-75
2023/09/15 04:37:16;;;;;;;10.82;5.28;;;14.20;99.90;;;;;;4961569;28;20333;-75
2023/09/15 04:39:41;;;;;;;8.93;5.43;;;14.20;99.90;;;;;;4962971;28;20583;-75
2023/09/15 04:42:09;;;;;;;9.20;5.53;;;14.20;99.90;;;;;;4956223;28;20039;-75
2023/09/15 04:44:35;;;;;;;9.57;5.72;;;14.10;99.90;;;;;;4956644;28;20019;-75
2023/09/15 04:47:00;;;;;;;9.93;5.97;;;14.10;99.90;;;;;;4963880;28;20035;-75
2023/09/15 04:49:26;;;;;;;11.10;6.00;;;14.20;99.90;;;;;;4959697;28;20421;-75
2023/09/15 04:51:52;;;;;;;9.77;5.53;;;14.10;99.90;;;;;;4955358;28;20126;-75
2023/09/15 04:54:17;;;;;;;9.48;5.18;;;14.10;99.90;;;;;;4960631;28;20391;-75
2023/09/15 04:56:43;;;;;;;9.00;5.07;;;14.10;99.90;;;;;;4963397;28;20496;-75
2023/09/15 04:59:15;;;;;;;9.25;5.50;;;14.10;99.90;;;;;;4956116;28;20109;-75
2023/09/15 05:01:44;;;;;;;9.60;6.07;;;14.10;99.90;;;;;;4955580;28;20070;-75
2023/09/15 05:04:10;;;;;;;10.02;5.90;;;14.10;99.90;;;;;;4966337;28;20047;-75
2023/09/15 05:06:37;;;;;;;8.75;5.63;;;14.10;99.90;;;;;;4956916;28;20506;-75
2023/09/15 05:09:10;;;;;;;13.52;5.88;;;14.10;99.90;;;;;;4953436;28;20030;-75
2023/09/15 05:11:37;;;;;;;10.15;5.75;;;14.00;99.90;;;;;;4964695;28;20019;-76
2023/09/15 05:14:03;;;;;;;11.80;5.85;;;14.00;99.90;;;;;;4955933;28;20034;-75
2023/09/15 05:16:29;;;;;;;9.93;6.25;;;14.00;99.90;;;;;;4960557;28;20034;-75
2023/09/15 05:18:55;;;;;;;10.75;5.55;;;14.00;99.90;;;;;;4960479;28;20489;-75
2023/09/15 05:21:21;;;;;;;10.27;5.30;;;14.00;99.90;;;;;;4932241;29;20031;-75
2023/09/15 05:23:46;;;;;;;10.13;5.95;;;14.00;99.90;;;;;;4949791;28;20458;-76
2023/09/15 05:26:12;;;;;;;9.27;5.75;;;14.00;99.90;;;;;;4953935;28;20556;-75
2023/09/15 05:28:38;;;;;;;12.13;6.05;;;13.90;99.90;;;;;;4953115;28;20027;-75
2023/09/15 05:31:04;;;;;;;11.30;6.15;;;13.90;99.90;;;;;;4933001;29;20512;-76
2023/09/15 05:33:29;;;;;;;9.30;5.43;;;14.00;99.90;;;;;;4944835;29;20569;-76
2023/09/15 05:35:56;;;;;;;10.65;5.80;;;14.00;99.90;;;;;;4959995;28;20106;-76
2023/09/15 05:38:23;;;;;;;9.52;5.38;;;14.00;99.90;;;;;;4950826;28;20556;-74
2023/09/15 05:40:49;;;;;;;10.30;5.82;;;14.00;99.90;;;;;;4958553;28;20086;-74
2023/09/15 05:43:16;;;;;;;11.05;5.93;;;14.00;99.90;;;;;;4962640;28;20122;-74
2023/09/15 05:45:42;;;;;;;12.60;6.43;;;14.00;99.90;;;;;;4955469;28;20027;-75
2023/09/15 05:48:13;;;;;;;10.50;5.35;;;14.00;99.90;;;;;;4954802;28;20329;-74
2023/09/15 05:50:39;;;;;;;;;;;14.00;99.90;;;;;;4955558;28;20042;-74
2023/09/15 05:53:05;;;;;;;12.10;6.00;;;14.00;99.90;;;;;;4956637;28;19956;-74
2023/09/15 05:55:31;;;;;;;12.95;6.60;;;14.00;99.90;;;;;;4961838;28;20016;-74
2023/09/15 05:57:56;;;;;;;10.68;5.25;;;14.00;99.90;;;;;;4942134;28;20042;-74
2023/09/15 06:00:22;;;;;;;11.27;6.05;;;14.00;99.90;;;;;;4951734;28;20457;-74
2023/09/15 06:02:48;;;;;;;13.45;6.72;;;14.00;99.90;;;;;;4956979;28;20034;-74
2023/09/15 06:05:14;;;;;;;9.25;5.90;;;14.00;99.90;;;;;;4965003;28;20031;-75
2023/09/15 06:07:40;;;;;;;10.57;6.40;;;14.10;99.90;;;;;;4954967;28;20023;-75
2023/09/15 06:10:09;;;;;;;10.73;6.00;;;14.10;99.90;;;;;;4955018;28;20075;-75
2023/09/15 06:12:34;;;;;;;8.90;6.00;;;14.10;99.90;;;;;;4953218;28;20086;-74
2023/09/15 06:15:00;;;;;;;13.23;7.25;;;14.10;99.90;;;;;;4960578;28;20023;-74
2023/09/15 06:17:27;;;;;;;11.75;6.53;;;14.10;99.90;;;;;;4961406;28;20054;-75
2023/09/15 06:19:53;;;;;;;12.00;6.30;;;14.20;99.90;;;;;;4953996;28;20436;-74
2023/09/15 06:22:19;;;;;;;10.00;6.03;;;14.20;99.90;;;;;;4956820;28;20023;-74
2023/09/15 06:24:45;;;;;;;13.60;6.15;;;14.10;99.90;;;;;;4961808;28;20413;-75
2023/09/15 06:27:10;;;;;;;11.65;6.38;;;14.20;99.90;;;;;;4957513;28;20027;-75
2023/09/15 06:29:36;;;;;;;8.35;5.82;;;14.20;99.90;;;;;;4953864;28;20020;-75
2023/09/15 06:32:02;;;;;;;10.90;6.80;;;14.30;99.90;;;;;;4960543;28;20055;-74
2023/09/15 06:34:27;;;;;;;10.50;6.20;;;14.20;99.90;;;;;;4943823;28;20037;-75
2023/09/15 06:36:53;;;;;;;11.23;6.57;;;14.30;99.90;;;;;;4954252;28;20081;-75
2023/09/15 06:39:23;;;;;;;13.13;6.30;;;14.30;99.90;;;;;;4956759;28;20517;-75
2023/09/15 06:41:49;;;;;;;12.25;6.50;;;14.40;99.90;;;;;;4961579;28;20023;-75
2023/09/15 06:44:15;;;;;;;10.10;5.78;;;14.40;99.90;;;;;;4957794;28;20528;-74
2023/09/15 06:46:40;;;;;;;10.18;5.95;;;14.40;99.90;;;;;;4953268;28;20043;-74
2023/09/15 06:49:06;;;;;;;14.00;7.50;;;14.50;99.90;;;;;;4955723;28;20544;-74
2023/09/15 06:51:32;;;;;;;9.65;6.40;;;14.50;99.90;;;;;;4948484;28;20028;-75
2023/09/15 06:53:59;;;;;;;11.77;6.80;;;14.60;99.90;;;;;;4950568;28;20038;-75
2023/09/15 06:56:25;;;;;;;11.95;6.90;;;14.60;99.90;;;;;;4938254;28;20042;-75
2023/09/15 06:58:51;;;;;;;11.20;6.60;;;14.70;99.90;;;;;;4966499;28;20019;-74
2023/09/15 07:01:17;;;;;;;9.27;5.57;;;14.70;99.90;;;;;;4957268;28;20106;-74
2023/09/15 07:03:43;;;;;;;9.27;6.15;;;14.80;99.90;;;;;;4941982;28;20389;-75
2023/09/15 07:06:08;;;;;;;10.45;6.63;;;14.80;99.90;;;;;;4953245;28;20023;-75
2023/09/15 07:08:34;;;;;;;9.95;6.50;;;14.80;99.90;;;;;;4935523;28;20101;-75
2023/09/15 07:10:59;;;;;;;11.15;5.93;;;14.90;99.90;;;;;;4948012;28;20095;-74
2023/09/15 07:13:25;;;;;;;12.15;6.03;;;15.00;99.90;;;;;;4941871;28;20054;-74
2023/09/15 07:15:51;;;;;;;8.23;5.10;;;15.00;99.90;;;;;;4956544;28;20238;-75
2023/09/15 07:18:16;;;;;;;9.55;6.20;;;15.00;99.90;;;;;;4950263;29;20060;-74
2023/09/15 07:20:42;;;;;;;9.63;5.82;;;15.10;99.90;;;;;;4963181;28;20124;-75
2023/09/15 07:23:09;;;;;;;10.15;5.70;;;15.10;99.90;;;;;;4955661;28;20316;-75
2023/09/15 07:25:34;;;;;;;12.25;6.47;;;15.20;99.90;;;;;;4960425;28;20041;-75
2023/09/15 07:28:01;;;;;;;16.35;6.35;;;15.20;99.90;;;;;;4963485;28;20019;-75
2023/09/15 07:30:26;;;;;;;11.10;5.20;;;15.30;99.90;;;;;;4952045;28;20062;-74
2023/09/15 07:32:52;;;;;;;10.80;5.53;;;15.30;99.90;;;;;;4964848;28;20030;-75
2023/09/15 07:35:18;;;;;;;9.15;5.85;;;15.30;99.90;;;;;;4950555;28;20058;-75
2023/09/15 07:37:43;;;;;;;10.02;5.55;;;15.40;99.90;;;;;;4948884;28;20023;-74
2023/09/15 07:40:10;;;;;;;9.98;6.03;;;15.40;99.90;;;;;;4962122;28;20039;-74
2023/09/15 07:42:36;;;;;;;9.50;6.13;;;15.50;99.90;;;;;;4953718;28;20082;-75
2023/09/15 07:45:03;;;;;;;8.88;5.28;;;15.50;99.90;;;;;;4955631;28;20031;-74
2023/09/15 07:47:29;;;;;;;9.10;5.05;;;15.60;99.90;;;;;;4955593;28;20437;-74
2023/09/15 07:49:57;;;;;;;8.73;5.35;;;15.60;99.90;;;;;;4954688;28;20027;-74
2023/09/15 07:52:24;;;;;;;7.80;4.88;;;15.70;99.90;;;;;;4954976;28;20402;-75
2023/09/15 07:54:50;;;;;;;10.23;5.03;;;15.80;99.90;;;;;;4952374;28;20034;-74
2023/09/15 07:57:16;;;;;;;7.80;5.40;;;15.80;99.90;;;;;;4956431;28;20393;-74
2023/09/15 07:59:42;;;;;;;9.57;5.28;;;15.90;99.90;;;;;;4968916;28;20027;-74
2023/09/15 08:02:07;;;;;;;10.27;4.85;;;15.90;99.90;;;;;;4948165;28;20416;-75
2023/09/15 08:04:33;;;;;;;10.68;5.55;;;16.00;99.90;;;;;;4966541;28;20026;-74
2023/09/15 08:06:59;;;;;;;7.07;4.88;;;16.10;99.90;;;;;;4943009;28;20026;-74
2023/09/15 08:09:24;;;;;;;10.88;5.60;;;16.10;99.90;;;;;;4945896;28;20050;-74
2023/09/15 08:11:50;;;;;;;11.57;5.45;;;16.20;99.90;;;;;;4951901;28;20393;-75
2023/09/15 08:14:16;;;;;;;10.05;5.38;;;16.30;99.90;;;;;;4956277;28;20056;-75
2023/09/15 08:16:42;;;;;;;10.80;5.68;;;16.30;99.90;;;;;;4962286;28;20040;-75
2023/09/15 08:19:07;;;;;;;10.48;5.45;;;16.40;99.90;;;;;;4950422;28;20031;-75
2023/09/15 08:21:33;;;;;;;9.35;5.57;;;16.40;99.90;;;;;;4963846;28;20019;-74
2023/09/15 08:23:59;;;;;;;8.70;4.68;;;16.50;99.90;;;;;;4960609;28;20512;-74
2023/09/15 08:26:25;;;;;;;9.57;5.07;;;16.60;99.90;;;;;;4953277;28;20113;-74
2023/09/15 08:28:51;;;;;;;8.43;4.95;;;16.60;99.90;;;;;;4959157;28;20015;-74
2023/09/15 08:31:17;;;;;;;10.20;5.43;;;16.70;99.90;;;;;;4954911;28;20508;-74
2023/09/15 08:33:43;;;;;;;9.18;5.00;;;16.80;99.90;;;;;;4961185;28;20019;-74
2023/09/15 08:36:08;;;;;;;9.90;5.05;;;16.90;99.90;;;;;;4949583;28;20891;-74
2023/09/15 08:38:34;;;;;;;8.30;5.47;;;16.90;99.90;;;;;;4953655;28;20027;-74
2023/09/15 08:41:05;;;;;;;11.75;5.32;;;16.90;99.90;;;;;;4959598;28;20126;-74
2023/09/15 08:43:31;;;;;;;;;;;17.00;99.90;;;;;;4962768;28;20031;-75
2023/09/15 08:45:59;;;;;;;8.75;4.97;;;17.10;99.90;;;;;;4939921;28;19910;-74
2023/09/15 08:48:29;;;;;;;11.73;5.70;;;17.10;99.90;;;;;;4950852;28;20031;-74
2023/09/15 08:50:58;;;;;;;12.80;5.63;;;17.10;99.90;;;;;;4957974;28;20109;-74
2023/09/15 08:53:24;;;;;;;11.02;5.07;;;17.20;99.90;;;;;;4955548;28;20056;-75
2023/09/15 08:55:51;;;;;;;10.00;5.00;;;17.30;99.90;;;;;;4943792;28;20031;-74
2023/09/15 08:58:17;;;;;;;11.32;6.13;;;17.40;99.90;;;;;;4962707;28;20054;-75
2023/09/15 09:00:43;;;;;;;9.30;5.10;;;17.50;99.90;;;;;;4955033;28;20033;-75
2023/09/15 09:03:12;;;;;;;10.68;5.03;;;17.60;99.90;;;;;;4957724;28;20035;-74
2023/09/15 09:05:46;;;;;;;9.10;4.93;;;17.70;99.90;;;;;;4957231;28;20023;-73
2023/09/15 09:08:12;;;;;;;12.25;5.65;;;17.70;99.90;;;;;;4954764;28;21230;-74
2023/09/15 09:10:38;;;;;;;10.35;4.40;;;17.80;99.90;;;;;;4952796;28;20395;-74
2023/09/15 09:13:04;;;;;;;10.27;4.80;;;17.90;99.90;;;;;;4951718;28;20485;-74
2023/09/15 09:15:32;;;;;;;9.30;4.95;;;18.00;99.90;;;;;;4955645;28;20106;-75
2023/09/15 09:17:58;;;;;;;9.85;4.57;;;18.10;99.90;;;;;;4958584;28;20108;-75
2023/09/15 09:20:28;;;;;;;8.93;4.07;;;18.20;99.90;;;;;;4953642;28;20066;-74
2023/09/15 09:22:54;;;;;;;8.02;4.25;;;18.20;99.90;;;;;;4950459;28;20126;-74
2023/09/15 09:25:33;;;;;;;10.10;4.40;;;18.30;99.90;;;;;;4950233;28;20410;-74
2023/09/15 09:28:00;;;;;;;7.50;4.13;;;18.40;99.90;;;;;;4935748;28;20047;-74
2023/09/15 09:30:29;;;;;;;9.48;4.63;;;18.50;99.90;;;;;;4956902;28;20114;-75
2023/09/15 09:32:55;;;;;;;8.75;4.18;;;18.50;99.90;;;;;;4957187;28;20402;-74
2023/09/15 09:35:21;;;;;;;10.20;5.25;;;18.60;99.90;;;;;;4949553;28;20118;-74
2023/09/15 09:37:47;;;;;;;11.23;4.97;;;18.70;99.90;;;;;;4936668;29;20126;-74
2023/09/15 09:40:13;;;;;;;8.35;4.60;;;18.70;99.90;;;;;;4958321;28;20198;-74
2023/09/15 09:42:40;;;;;;;12.95;5.28;;;18.90;99.90;;;;;;4949786;28;20459;-75
2023/09/15 09:45:07;;;;;;;7.38;4.32;;;18.90;99.90;;;;;;4962349;28;20031;-74
2023/09/15 09:47:33;;;;;;;8.93;4.13;;;19.00;99.90;;;;;;4957402;28;20034;-75
2023/09/15 09:49:58;;;;;;;8.98;4.13;;;19.10;99.90;;;;;;4936403;29;20027;-74
2023/09/15 09:52:25;;;;;;;10.50;4.47;;;19.20;99.90;;;;;;4937623;28;20015;-75
2023/09/15 09:54:51;;;;;;;9.40;3.78;;;19.20;99.90;;;;;;4954821;28;20038;-74
2023/09/15 09:57:17;;;;;;;8.43;4.50;;;19.30;99.90;;;;;;4944502;29;20042;-74
2023/09/15 09:59:44;;;;;;;7.68;3.50;;;19.50;99.90;;;;;;4947807;28;20125;-74
2023/09/15 10:02:11;;;;;;;6.97;3.38;;;19.50;99.90;;;;;;4961164;28;20050;-74
2023/09/15 10:04:37;;;;;;;7.00;3.00;;;19.60;99.90;;;;;;4956134;28;20039;-74
2023/09/15 10:07:04;;;;;;;6.38;3.47;;;19.70;99.90;;;;;;4952733;28;20034;-74
2023/09/15 10:09:31;;;;;;;7.70;3.72;;;19.80;99.90;;;;;;4958860;28;20741;-74
2023/09/15 10:11:57;;;;;;;7.68;3.83;;;19.80;99.90;;;;;;4950814;28;20043;-74
2023/09/15 10:14:25;;;;;;;6.57;3.22;;;19.90;99.90;;;;;;4960652;28;20037;-74
2023/09/15 10:16:51;;;;;;;5.95;3.15;;;20.00;99.90;;;;;;4954939;28;20031;-74
2023/09/15 10:19:18;;;;;;;4.85;3.08;;;20.10;99.90;;;;;;4953008;28;20031;-74
2023/09/15 10:21:44;;;;;;;7.13;3.42;;;20.20;99.90;;;;;;4960066;28;20031;-74
2023/09/15 10:24:11;;;;;;;6.15;3.30;;;20.30;99.90;;;;;;4957301;28;20392;-74
2023/09/15 10:26:41;;;;;;;7.30;3.92;;;20.30;99.90;;;;;;4951098;28;20031;-75
2023/09/15 10:29:08;;;;;;;6.95;4.07;;;20.40;99.90;;;;;;4952746;28;20026;-74
2023/09/15 10:31:34;;;;;;;9.20;3.80;;;20.50;99.90;;;;;;4957310;28;20025;-74
2023/09/15 10:34:04;;;;;;;7.60;3.67;;;20.50;99.90;;;;;;4960336;28;20659;-75
2023/09/15 10:36:32;;;;;;;9.30;3.75;;;20.60;99.90;;;;;;4958066;28;20029;-75
2023/09/15 10:38:58;;;;;;;10.10;3.88;;;20.70;99.90;;;;;;4956341;28;20651;-74
2023/09/15 10:41:28;;;;;;;7.07;3.50;;;20.70;99.90;;;;;;4954079;28;20460;-74
2023/09/15 10:43:54;;;;;;;5.60;3.25;;;20.80;99.90;;;;;;4953122;28;20035;-74
2023/09/15 10:46:20;;;;;;;8.35;3.95;;;20.90;99.90;;;;;;4963892;28;20031;-74
2023/09/15 10:48:47;;;;;;;8.02;4.55;;;20.90;99.90;;;;;;4967827;28;20019;-75
2023/09/15 10:51:18;;;;;;;6.88;4.20;;;21.00;99.90;;;;;;4967778;28;20035;-74
2023/09/15 10:53:47;;;;;;;;;;;21.10;99.90;;;;;;4948485;28;20018;-74
2023/09/15 10:56:14;;;;;;;5.80;3.30;;;21.20;99.90;;;;;;4963716;28;20399;-74
2023/09/15 10:58:41;;;;;;;6.47;3.55;;;21.20;99.90;;;;;;4961414;28;20019;-74
2023/09/15 11:01:10;;;;;;;9.40;4.45;;;21.20;99.90;;;;;;4955396;28;20035;-74
2023/09/15 11:03:37;;;;;;;7.18;3.92;;;21.30;99.90;;;;;;4957450;28;20030;-74
2023/09/15 11:06:06;;;;;;;6.57;3.60;;;21.50;99.90;;;;;;4955757;28;20031;-74
2023/09/15 11:08:32;;;;;;;6.55;4.10;;;21.50;99.90;;;;;;4964642;28;20015;-74
2023/09/15 11:10:59;;;;;;;7.25;3.83;;;21.60;99.90;;;;;;4955019;28;20034;-74
2023/09/15 11:13:25;;;;;;;7.45;3.85;;;21.60;99.90;;;;;;4951478;29;20024;-73
2023/09/15 11:15:51;;;;;;;6.03;3.30;;;21.70;99.90;;;;;;4964678;28;20037;-74
2023/09/15 11:18:18;;;;;;;7.28;4.70;;;21.80;99.90;;;;;;4954150;28;20527;-74
2023/09/15 11:20:44;;;;;;;7.03;4.50;;;21.90;99.90;;;;;;4953771;28;20256;-74
2023/09/15 11:23:10;;;;;;;9.27;4.03;;;21.90;99.90;;;;;;4953215;28;21216;-74
2023/09/15 11:25:36;;;;;;;8.20;4.32;;;22.00;99.90;;;;;;4944175;28;20308;-74
2023/09/15 11:28:02;;;;;;;6.10;3.50;;;22.00;99.90;;;;;;4953147;28;20548;-74
2023/09/15 11:30:28;;;;;;;6.50;3.80;;;22.10;99.90;;;;;;4949748;29;20560;-74
2023/09/15 11:32:55;;;;;;;7.70;3.88;;;22.10;99.90;;;;;;4956819;28;20027;-74
2023/09/15 11:35:23;;;;;;;9.65;4.75;;;22.20;99.90;;;;;;4962573;28;20031;-74
2023/09/15 11:37:49;;;;;;;8.00;3.60;;;22.30;99.90;;;;;;4963600;28;20037;-74
2023/09/15 11:40:24;;;;;;;8.88;4.05;;;22.30;99.90;;;;;;4954208;28;20421;-74
2023/09/15 11:43:02;;;;;;;9.48;4.07;;;22.40;99.90;;;;;;4951875;28;20034;-75
2023/09/15 11:45:30;;;;;;;8.27;4.65;;;22.50;99.90;;;;;;4955572;28;20023;-74
2023/09/15 11:47:59;;;;;;;8.82;4.38;;;22.50;99.90;;;;;;4962178;28;20027;-74
2023/09/15 11:50:26;;;;;;;6.18;3.50;;;22.60;99.90;;;;;;4964236;28;20016;-74
2023/09/15 11:52:52;;;;;;;6.75;3.97;;;22.60;99.90;;;;;;4959378;28;20400;-74
2023/09/15 11:55:20;;;;;;;7.05;4.13;;;22.70;99.90;;;;;;4955162;28;20031;-74
2023/09/15 11:57:47;;;;;;;7.55;3.70;;;22.80;99.90;;;;;;4959141;28;20573;-74
2023/09/15 12:00:18;;;;;;;8.13;4.00;;;22.80;99.90;;;;;;4945003;28;20031;-74
2023/09/15 12:02:48;;;;;;;7.95;3.40;;;22.90;99.70;;;;;;4956434;28;20027;-74
2023/09/15 12:05:15;;;;;;;6.97;3.78;;;23.00;99.70;;;;;;4948747;28;20027;-74
2023/09/15 12:07:43;;;;;;;6.50;3.30;;;23.00;99.50;;;;;;4952094;28;20028;-74
2023/09/15 12:10:12;;;;;;;8.35;3.80;;;23.10;99.40;;;;;;4962434;28;20034;-75
2023/09/15 12:12:38;;;;;;;8.35;3.63;;;23.10;99.40;;;;;;4962482;28;20038;-74
2023/09/15 12:15:06;;;;;;;8.35;3.65;;;23.20;99.40;;;;;;4957476;28;20031;-74
2023/09/15 12:17:32;;;;;;;6.78;3.30;;;23.20;99.30;;;;;;4955165;28;20031;-74
2023/09/15 12:20:04;;;;;;;7.00;3.58;;;23.30;99.40;;;;;;4952285;28;20492;-74
2023/09/15 12:22:34;;;;;;;5.35;3.72;;;23.30;99.30;;;;;;4948676;29;20022;-75
2023/09/15 12:25:00;;;;;;;7.20;2.92;;;23.40;98.80;;;;;;4949070;29;20055;-74
2023/09/15 12:27:29;;;;;;;5.85;3.75;;;23.40;98.70;;;;;;4949671;29;20051;-73
2023/09/15 12:30:01;;;;;;;8.80;3.83;;;23.40;98.50;;;;;;4964085;28;20106;-74
2023/09/15 12:32:30;;;;;;;9.75;4.43;;;23.40;98.30;;;;;;4960313;28;20027;-74
2023/09/15 12:34:56;;;;;;;6.32;3.20;;;23.40;98.20;;;;;;4955656;28;20029;-75
2023/09/15 12:37:24;;;;;;;7.80;3.78;;;23.50;98.10;;;;;;4942428;29;20027;-75
2023/09/15 12:39:50;;;;;;;8.07;3.85;;;23.50;98.20;;;;;;4951356;28;20058;-74
2023/09/15 12:42:15;;;;;;;7.15;3.95;;;23.60;98.30;;;;;;4955682;28;20375;-74